Time;durP1;ratioP1;P1;durP2;ratioP2;P2;SDS_P1;SDS_P2;PMS_P1;PMS_P2;Temp;Humidity;BMP_temperature;BMP_pressure;BME280_temperature;BME280_humidity;BME280_pressure;Samples;Min_cycle;Max_cycle;Signal;HPM_P1;HPM_P2
2021/07/20 00:00:31;;;;;;;20.27;6.50;;;;;;;22.43;71.23;100010.14;1792679;78;21410;-57
2021/07/20 00:03:38;;;;;;;21.68;6.90;;;;;;;22.44;71.36;100012.38;1774283;77;21357;-58
2021/07/20 00:06:45;;;;;;;13.72;6.50;;;;;;;22.42;71.43;100007.03;1787282;78;21228;-60
2021/07/20 00:09:54;;;;;;;14.70;6.60;;;;;;;22.43;71.70;99999.52;1778137;77;21723;-59
2021/07/20 00:13:00;;;;;;;15.43;6.92;;;;;;;22.46;71.73;100003.17;1725390;78;21186;-58
2021/07/20 00:16:08;;;;;;;17.10;7.05;;;;;;;22.44;71.70;99995.64;1743015;78;21220;-59
2021/07/20 00:19:13;;;;;;;14.47;7.17;;;;;;;22.41;71.79;99998.39;1788534;76;21281;-58
2021/07/20 00:22:19;;;;;;;13.90;6.62;;;;;;;22.38;71.80;99990.55;1778734;77;21289;-59
2021/07/20 00:25:25;;;;;;;16.57;7.00;;;;;;;22.39;71.92;99992.80;1778869;76;21451;-58
2021/07/20 00:28:32;;;;;;;13.72;6.97;;;;;;;22.40;72.21;99977.73;1752764;78;21213;-58
2021/07/20 00:31:42;;;;;;;15.80;6.78;;;;;;;22.43;72.32;99989.75;1768193;79;21815;-58
2021/07/20 00:34:49;;;;;;;19.05;7.65;;;;;;;22.38;72.26;99988.30;1776746;77;21248;-59
2021/07/20 00:37:54;;;;;;;17.02;7.78;;;;;;;22.32;72.31;99993.53;1785981;76;21362;-58
2021/07/20 00:41:02;;;;;;;18.07;6.85;;;;;;;22.29;72.59;99992.13;1773304;78;21392;-58
2021/07/20 00:44:08;;;;;;;15.23;6.42;;;;;;;22.29;72.83;99999.09;1757760;78;21868;-58
2021/07/20 00:47:15;;;;;;;14.00;7.60;;;;;;;22.28;72.97;99997.39;1778235;77;21997;-58
2021/07/20 00:50:23;;;;;;;12.68;6.78;;;;;;;22.23;72.99;99996.78;1772908;76;21231;-57
2021/07/20 00:53:29;;;;;;;14.00;7.50;;;;;;;22.18;73.15;99995.91;1767695;78;21274;-57
2021/07/20 00:56:36;;;;;;;11.80;7.22;;;;;;;22.14;73.20;99990.00;1746843;79;21217;-58
2021/07/20 00:59:43;;;;;;;13.45;6.72;;;;;;;22.12;73.12;99993.59;1757143;78;21221;-59
2021/07/20 01:02:49;;;;;;;18.37;7.60;;;;;;;22.11;73.10;100001.67;1780725;77;21792;-58
2021/07/20 01:05:56;;;;;;;14.45;7.20;;;;;;;22.12;73.18;100004.73;1779710;77;21202;-58
2021/07/20 01:09:03;;;;;;;14.10;6.83;;;;;;;22.13;73.31;100005.05;1778396;78;21204;-58
2021/07/20 01:12:14;;;;;;;11.60;6.95;;;;;;;22.13;73.32;99995.83;1781593;77;22116;-58
2021/07/20 01:15:29;;;;;;;14.65;7.55;;;;;;;22.10;73.30;99986.59;1766854;78;21298;-57
2021/07/20 01:18:36;;;;;;;16.62;6.70;;;;;;;22.06;73.37;99985.41;1767235;77;21207;-58
2021/07/20 01:21:45;;;;;;;13.43;7.17;;;;;;;22.04;73.37;99986.25;1722464;79;21807;-58
2021/07/20 01:24:53;;;;;;;17.48;7.50;;;;;;;22.01;73.37;99976.98;1741697;77;21204;-59
2021/07/20 01:28:17;;;;;;;12.13;6.53;;;;;;;21.97;73.39;99975.30;1802687;76;21741;-58
2021/07/20 01:31:29;;;;;;;12.93;6.90;;;;;;;21.94;73.53;99980.00;1773928;77;21378;-59
2021/07/20 01:34:39;;;;;;;14.75;7.08;;;;;;;21.93;73.66;99979.69;1787946;78;21381;-59
2021/07/20 01:37:50;;;;;;;17.17;7.42;;;;;;;21.92;73.78;99982.73;1790609;78;21828;-60
2021/07/20 01:40:58;;;;;;;17.92;6.65;;;;;;;21.91;73.88;99978.27;1774387;76;21226;-59
2021/07/20 01:44:07;;;;;;;14.83;6.85;;;;;;;21.89;73.99;99985.50;1747498;78;21350;-59
2021/07/20 01:47:19;;;;;;;13.85;6.47;;;;;;;21.90;74.08;99982.14;1778709;77;21721;-59
2021/07/20 01:50:25;;;;;;;11.95;6.92;;;;;;;21.87;74.11;99984.91;1788440;77;21220;-59
2021/07/20 01:53:33;;;;;;;19.00;7.40;;;;;;;21.89;74.17;99992.47;1774733;79;21250;-58
2021/07/20 01:56:38;;;;;;;16.37;7.08;;;;;;;21.88;74.19;99986.58;1775561;76;21321;-58
2021/07/20 01:59:47;;;;;;;16.77;6.67;;;;;;;21.88;74.23;99992.73;1789794;78;21362;-59
2021/07/20 02:03:17;;;;;;;15.05;6.83;;;;;;;21.88;74.28;99989.94;1796506;77;21422;-59
2021/07/20 02:10:05;;;;;;;14.75;7.58;;;;;;;21.93;74.21;99977.44;1777186;76;21209;-59
2021/07/20 02:13:16;;;;;;;12.55;6.25;;;;;;;21.93;74.18;99976.05;1791924;76;21203;-59
2021/07/20 02:16:36;;;;;;;13.22;6.90;;;;;;;21.93;74.39;99975.50;1787414;79;21697;-58
2021/07/20 02:19:46;;;;;;;16.42;7.17;;;;;;;21.96;74.43;99979.73;1785540;77;21342;-58
2021/07/20 02:22:54;;;;;;;12.35;6.87;;;;;;;21.98;74.37;99987.27;1768133;77;21345;-58
2021/07/20 02:26:00;;;;;;;11.08;7.03;;;;;;;22.02;74.40;99985.66;1789113;79;21283;-58
2021/07/20 02:29:06;;;;;;;12.47;7.10;;;;;;;22.04;74.30;99982.89;1787774;79;21358;-58
2021/07/20 02:32:14;;;;;;;15.40;8.10;;;;;;;22.07;74.30;99987.94;1795111;78;21339;-59
2021/07/20 02:35:31;;;;;;;17.37;8.40;;;;;;;22.15;74.52;99995.84;1770031;78;21314;-58
2021/07/20 02:38:49;;;;;;;16.42;8.45;;;;;;;22.22;74.16;100002.63;1796469;78;21517;-57
2021/07/20 02:42:01;;;;;;;19.45;8.45;;;;;;;22.29;73.90;99996.84;1791786;79;21184;-58
2021/07/20 02:45:08;;;;;;;15.00;8.83;;;;;;;22.31;73.91;99990.47;1784300;79;21188;-58
2021/07/20 02:48:15;;;;;;;9.75;6.80;;;;;;;22.32;73.97;99992.14;1737059;78;21443;-58
2021/07/20 02:51:25;;;;;;;15.40;7.33;;;;;;;22.35;73.85;99987.43;1779709;78;21358;-57
2021/07/20 02:54:34;;;;;;;15.00;7.15;;;;;;;22.31;73.77;99991.29;1779168;77;21176;-58
2021/07/20 02:57:42;;;;;;;19.20;9.85;;;;;;;22.30;73.83;99992.41;1786911;78;21267;-58
2021/07/20 03:00:58;;;;;;;17.07;9.08;;;;;;;22.37;73.98;100000.03;1788818;79;21768;-58
2021/07/20 03:04:08;;;;;;;17.27;7.70;;;;;;;22.43;73.82;99996.19;1784951;77;21327;-58
2021/07/20 03:07:18;;;;;;;16.40;8.10;;;;;;;22.46;73.72;99997.05;1775716;78;21197;-59
2021/07/20 03:10:23;;;;;;;19.12;8.28;;;;;;;22.51;73.68;100003.23;1788435;77;21339;-62
2021/07/20 03:13:33;;;;;;;19.00;7.72;;;;;;;22.55;73.66;100010.03;1789209;78;21267;-62
2021/07/20 03:16:39;;;;;;;15.58;8.15;;;;;;;22.57;73.46;100009.19;1797381;76;21346;-59
2021/07/20 03:19:49;;;;;;;15.95;7.85;;;;;;;22.59;73.52;100008.38;1793022;78;21190;-60
2021/07/20 03:22:56;;;;;;;13.62;7.33;;;;;;;22.61;73.38;100011.76;1779910;76;21880;-60
2021/07/20 03:26:06;;;;;;;20.55;8.03;;;;;;;22.62;73.35;100006.45;1790596;78;21343;-58
2021/07/20 03:29:12;;;;;;;15.20;7.30;;;;;;;22.59;73.38;100006.45;1786097;77;21952;-59
2021/07/20 03:32:24;;;;;;;14.83;7.78;;;;;;;22.60;73.36;100003.08;1794379;78;21442;-61
2021/07/20 03:35:29;;;;;;;11.73;7.65;;;;;;;22.55;73.42;100001.08;1798173;78;21438;-61
2021/07/20 03:38:39;;;;;;;13.05;7.45;;;;;;;22.54;73.62;100009.72;1793998;77;21527;-60
2021/07/20 03:41:46;;;;;;;21.48;8.00;;;;;;;22.57;73.70;100007.25;1769221;78;21403;-59
2021/07/20 03:44:55;;;;;;;13.43;7.15;;;;;;;22.58;73.69;100006.13;1772340;78;21849;-60
2021/07/20 03:48:02;;;;;;;14.73;7.83;;;;;;;22.58;73.86;100002.52;1787401;77;21333;-61
2021/07/20 03:51:17;;;;;;;15.35;8.33;;;;;;;22.59;73.97;100000.86;1793865;78;21346;-60
2021/07/20 03:54:28;;;;;;;15.50;7.78;;;;;;;22.68;73.85;99997.02;1778430;79;21184;-59
2021/07/20 03:57:36;;;;;;;15.78;7.65;;;;;;;22.73;73.64;100006.30;1776803;78;21856;-59
2021/07/20 04:00:42;;;;;;;12.23;7.60;;;;;;;22.79;73.65;99997.41;1710998;80;21208;-59
2021/07/20 04:03:49;;;;;;;18.32;7.45;;;;;;;22.85;73.44;100003.36;1710702;79;21217;-60
2021/07/20 04:07:06;;;;;;;22.32;7.92;;;;;;;22.95;73.40;100007.62;1772724;78;21361;-59
2021/07/20 04:10:24;;;;;;;16.97;8.03;;;;;;;23.03;73.27;100006.59;1777274;77;21397;-61
2021/07/20 04:13:31;;;;;;;16.97;8.35;;;;;;;23.08;72.99;100008.58;1763823;79;21397;-62
2021/07/20 04:16:45;;;;;;;16.57;7.78;;;;;;;23.15;73.03;100003.63;1794091;78;21334;-62
2021/07/20 04:19:52;;;;;;;15.60;8.73;;;;;;;23.21;72.57;99996.39;1784850;78;21879;-60
2021/07/20 04:23:00;;;;;;;18.73;8.70;;;;;;;23.28;72.48;100002.63;1767156;77;21717;-59
2021/07/20 04:26:07;;;;;;;15.72;7.58;;;;;;;23.34;72.18;99995.16;1790910;78;21221;-61
2021/07/20 04:29:13;;;;;;;17.40;8.00;;;;;;;23.40;72.05;99992.09;1784134;76;21365;-60
2021/07/20 04:32:20;;;;;;;12.03;7.60;;;;;;;23.46;71.92;99998.03;1793650;78;21354;-60
2021/07/20 04:35:28;;;;;;;14.43;7.80;;;;;;;23.61;71.81;100009.84;1781518;78;21279;-60
2021/07/20 04:38:35;;;;;;;16.10;7.70;;;;;;;23.73;71.36;100008.25;1776102;78;21448;-59
2021/07/20 04:41:43;;;;;;;14.35;7.50;;;;;;;23.83;71.21;100016.16;1786737;78;21417;-61
2021/07/20 04:44:50;;;;;;;15.28;7.70;;;;;;;23.94;70.74;100017.89;1770253;78;21220;-62
2021/07/20 04:47:59;;;;;;;15.18;7.83;;;;;;;23.97;69.89;100026.31;1790704;77;21342;-60
2021/07/20 04:51:07;;;;;;;17.23;7.65;;;;;;;23.93;69.42;100031.56;1770158;78;21279;-60
2021/07/20 04:54:12;;;;;;;13.18;7.47;;;;;;;23.96;69.42;100043.61;1769341;76;21236;-60
2021/07/20 04:57:20;;;;;;;21.73;8.60;;;;;;;24.04;69.54;100036.14;1794952;79;21334;-61
2021/07/20 05:00:26;;;;;;;13.53;7.58;;;;;;;24.16;69.27;100037.32;1755047;79;21801;-60
2021/07/20 05:03:32;;;;;;;14.53;7.40;;;;;;;24.28;68.90;100035.12;1790665;78;21244;-57
2021/07/20 05:06:40;;;;;;;13.85;6.65;;;;;;;24.40;68.82;100036.59;1785489;77;21393;-60
2021/07/20 05:09:47;;;;;;;16.75;6.85;;;;;;;24.50;68.07;100042.21;1785934;78;21211;-59
2021/07/20 05:12:54;;;;;;;22.77;6.75;;;;;;;24.61;67.31;100048.70;1788061;79;21393;-58
2021/07/20 05:16:11;;;;;;;11.63;6.30;;;;;;;24.78;66.93;100040.94;1703362;79;21257;-59
2021/07/20 05:19:18;;;;;;;19.30;7.72;;;;;;;24.99;66.29;100047.68;1778946;78;21169;-58
2021/07/20 05:22:31;;;;;;;14.13;6.40;;;;;;;25.22;65.94;100062.27;1749573;77;21328;-58
2021/07/20 05:25:39;;;;;;;10.70;5.75;;;;;;;25.37;65.19;100055.32;1777520;78;21239;-59
2021/07/20 05:28:46;;;;;;;17.05;7.90;;;;;;;25.45;64.78;100057.56;1750969;78;21234;-59
2021/07/20 05:31:56;;;;;;;13.90;6.67;;;;;;;25.53;64.53;100049.41;1762771;79;21243;-58
2021/07/20 05:35:01;;;;;;;9.88;5.85;;;;;;;25.63;64.26;100055.57;1756708;78;21381;-58
2021/07/20 05:38:11;;;;;;;13.62;6.53;;;;;;;25.71;64.19;100051.64;1756272;79;21386;-58
2021/07/20 05:41:21;;;;;;;11.18;5.80;;;;;;;25.83;64.17;100045.75;1723471;80;21887;-60
2021/07/20 05:44:30;;;;;;;13.13;6.08;;;;;;;25.94;64.02;100041.80;1791134;76;21879;-59
2021/07/20 05:47:38;;;;;;;11.30;6.12;;;;;;;26.03;63.28;100038.16;1750039;80;21275;-59
2021/07/20 05:50:49;;;;;;;17.77;6.62;;;;;;;26.14;62.36;100041.75;1766384;79;21223;-60
2021/07/20 05:54:00;;;;;;;15.20;6.25;;;;;;;26.19;62.18;100038.94;1768427;76;21224;-59
2021/07/20 05:57:19;;;;;;;14.33;6.60;;;;;;;26.23;62.01;100041.43;1763820;79;21173;-60
2021/07/20 06:00:32;;;;;;;11.00;6.37;;;;;;;26.27;61.46;100042.55;1773667;78;21227;-57
2021/07/20 06:03:38;;;;;;;14.03;6.90;;;;;;;26.30;62.30;100044.78;1778735;78;21350;-59
2021/07/20 06:06:44;;;;;;;15.95;6.17;;;;;;;26.31;62.80;100040.84;1780670;79;21333;-59
2021/07/20 06:09:57;;;;;;;13.75;6.30;;;;;;;26.29;63.09;100039.72;1781990;77;21352;-59
2021/07/20 06:13:02;;;;;;;15.78;6.53;;;;;;;26.33;62.51;100049.82;1748382;80;21220;-60
2021/07/20 06:16:10;;;;;;;17.50;7.30;;;;;;;26.36;62.68;100050.65;1770124;78;21225;-59
2021/07/20 06:19:15;;;;;;;11.90;6.12;;;;;;;26.42;62.78;100056.52;1785732;79;21226;-60
2021/07/20 06:22:21;;;;;;;10.85;6.42;;;;;;;26.52;62.92;100063.50;1764359;78;21618;-58
2021/07/20 06:25:30;;;;;;;13.03;5.50;;;;;;;26.59;62.72;100064.03;1747440;79;21227;-58
2021/07/20 06:28:38;;;;;;;14.87;6.35;;;;;;;26.65;62.37;100062.91;1740159;80;21778;-59
2021/07/20 06:31:49;;;;;;;12.88;5.58;;;;;;;26.69;62.17;100061.19;1767842;79;21895;-59
2021/07/20 06:34:56;;;;;;;14.60;6.47;;;;;;;26.70;61.96;100063.45;1786270;79;21291;-59
2021/07/20 06:38:05;;;;;;;11.93;6.42;;;;;;;26.76;60.80;100060.87;1773350;78;21406;-59
2021/07/20 06:41:26;;;;;;;9.63;5.85;;;;;;;26.83;61.18;100067.03;1757396;78;21390;-59
2021/07/20 06:44:38;;;;;;;13.20;6.47;;;;;;;26.89;61.33;100063.91;1783271;78;21203;-59
2021/07/20 06:47:47;;;;;;;11.33;6.25;;;;;;;26.99;61.48;100063.82;1778871;77;21347;-59
2021/07/20 06:50:59;;;;;;;13.32;5.95;;;;;;;27.06;60.68;100053.11;1755890;79;21605;-59
2021/07/20 06:54:06;;;;;;;12.73;5.53;;;;;;;27.14;59.79;100053.05;1755211;79;21748;-60
2021/07/20 06:57:14;;;;;;;12.65;5.78;;;;;;;27.18;59.25;100052.75;1758677;78;21267;-57
2021/07/20 07:00:24;;;;;;;9.78;4.95;;;;;;;27.19;57.92;100051.61;1743449;80;21247;-59
2021/07/20 07:03:52;;;;;;;12.05;5.10;;;;;;;27.21;57.21;100045.95;1742724;78;21238;-59
2021/07/20 07:06:59;;;;;;;15.25;5.87;;;;;;;27.23;55.71;100043.70;1746358;79;21213;-61
2021/07/20 07:10:07;;;;;;;17.02;5.28;;;;;;;27.24;55.75;100045.36;1711394;79;21203;-59
2021/07/20 07:13:18;;;;;;;10.70;5.45;;;;;;;27.32;55.58;100051.80;1747015;79;21185;-61
2021/07/20 07:16:37;;;;;;;9.05;4.87;;;;;;;27.40;55.59;100043.33;1735200;80;21574;-60
2021/07/20 07:19:55;;;;;;;13.50;5.58;;;;;;;27.50;55.24;100042.66;1763250;79;21247;-60
2021/07/20 07:23:05;;;;;;;10.68;5.30;;;;;;;27.61;55.00;100049.87;1760109;79;21911;-59
2021/07/20 07:26:13;;;;;;;12.80;5.25;;;;;;;27.69;54.13;100037.97;1783548;78;21207;-60
2021/07/20 07:29:25;;;;;;;11.05;5.37;;;;;;;27.79;54.06;100042.66;1719168;81;21228;-60
2021/07/20 07:32:34;;;;;;;13.30;5.37;;;;;;;27.85;53.76;100049.35;1780834;76;21326;-60
2021/07/20 07:35:40;;;;;;;11.85;4.72;;;;;;;27.94;53.75;100041.70;1778007;78;21579;-60
2021/07/20 07:38:48;;;;;;;8.78;4.30;;;;;;;28.02;53.20;100039.65;1775939;77;21334;-60
2021/07/20 07:41:53;;;;;;;13.30;5.05;;;;;;;28.08;52.95;100033.66;1789681;79;21359;-59
2021/07/20 07:45:00;;;;;;;9.88;4.60;;;;;;;28.16;52.01;100045.67;1778284;76;21709;-59
2021/07/20 07:48:06;;;;;;;11.55;4.80;;;;;;;28.21;51.43;100051.22;1773416;79;21355;-60
2021/07/20 07:51:15;;;;;;;7.78;4.60;;;;;;;28.27;51.61;100052.02;1764906;77;21207;-59
2021/07/20 07:54:21;;;;;;;10.93;4.40;;;;;;;28.36;51.75;100048.23;1768939;78;21236;-59
2021/07/20 07:57:33;;;;;;;12.50;4.80;;;;;;;28.47;50.51;100048.94;1789255;79;21363;-59
2021/07/20 08:00:41;;;;;;;10.65;4.58;;;;;;;28.56;49.93;100038.73;1756264;78;21347;-56
2021/07/20 08:03:48;;;;;;;10.35;5.12;;;;;;;28.65;49.50;100041.13;1795565;78;21764;-60
2021/07/20 08:06:56;;;;;;;11.83;4.70;;;;;;;28.75;50.05;100029.14;1785356;78;21915;-62
2021/07/20 08:10:06;;;;;;;8.33;4.55;;;;;;;28.84;49.94;100034.35;1786223;77;21835;-60
2021/07/20 08:13:15;;;;;;;13.15;4.67;;;;;;;28.92;46.46;100032.86;1761329;79;21317;-59
2021/07/20 08:16:26;;;;;;;8.23;4.25;;;;;;;28.98;46.33;100034.45;1778897;78;21309;-60
2021/07/20 08:19:33;;;;;;;10.18;4.30;;;;;;;29.03;45.29;100024.51;1785510;79;21410;-59
2021/07/20 08:22:40;;;;;;;9.95;4.53;;;;;;;29.10;45.74;100024.98;1767601;78;21535;-55
2021/07/20 08:25:54;;;;;;;9.93;4.83;;;;;;;29.16;44.38;100032.23;1774933;77;21414;-54
2021/07/20 08:29:08;;;;;;;10.10;4.50;;;;;;;29.23;44.20;100019.98;1769592;77;21398;-56
2021/07/20 08:32:16;;;;;;;13.25;5.53;;;;;;;29.28;43.97;100016.23;1771646;78;21736;-56
2021/07/20 08:35:28;;;;;;;6.92;4.22;;;;;;;29.31;43.86;100013.64;1769991;77;21465;-57
2021/07/20 08:38:36;;;;;;;12.28;5.72;;;;;;;29.33;43.30;100019.81;1767171;77;21361;-56
2021/07/20 08:42:24;;;;;;;9.63;4.30;;;;;;;29.37;43.98;100015.81;1763949;79;21891;-56
2021/07/20 08:45:35;;;;;;;10.45;5.12;;;;;;;29.46;43.85;100013.95;1759949;79;21209;-58
2021/07/20 08:48:59;;;;;;;13.15;5.65;;;;;;;29.52;43.59;100018.36;1744444;79;21301;-59
2021/07/20 08:52:25;;;;;;;8.18;4.72;;;;;;;29.63;44.10;100011.38;1756409;79;21188;-58
2021/07/20 08:55:35;;;;;;;8.93;4.97;;;;;;;29.63;44.10;100011.38;1759558;80;22036;-58
2021/07/20 08:58:54;;;;;;;13.93;6.03;;;;;;;29.69;44.17;100016.66;1780913;77;21215;-58
2021/07/20 09:02:29;;;;;;;14.83;5.50;;;;;;;29.75;44.76;100015.41;1770348;77;21370;-59
2021/07/20 09:05:43;;;;;;;12.03;5.42;;;;;;;29.93;45.13;100011.69;1767648;77;21215;-60
2021/07/20 09:09:09;;;;;;;14.93;5.03;;;;;;;29.93;45.13;100011.69;1784680;76;21764;-58
2021/07/20 09:12:27;;;;;;;9.95;5.37;;;;;;;30.03;44.50;100007.23;1756012;78;21409;-60
2021/07/20 09:15:36;;;;;;;9.30;5.70;;;;;;;30.09;44.45;99998.95;1774839;78;21741;-61
2021/07/20 09:18:52;;;;;;;9.13;5.37;;;;;;;30.23;44.27;100003.20;1780095;79;21213;-61
2021/07/20 09:21:58;;;;;;;9.63;5.28;;;;;;;30.28;43.96;99996.89;1774387;79;21220;-59
2021/07/20 09:25:09;;;;;;;14.00;6.20;;;;;;;30.28;43.96;99996.89;1764501;79;21351;-57
2021/07/20 09:28:17;;;;;;;11.22;6.15;;;;;;;30.34;43.91;99993.36;1760675;78;21244;-60
2021/07/20 09:31:55;;;;;;;12.98;6.15;;;;;;;30.40;43.91;99996.33;1767019;77;21196;-62
2021/07/20 09:35:15;;;;;;;11.85;5.42;;;;;;;30.44;44.03;99987.50;1785466;79;21351;-59
2021/07/20 09:38:41;;;;;;;10.10;5.92;;;;;;;30.53;43.79;99989.83;1790926;79;21176;-62
2021/07/20 09:41:59;;;;;;;12.88;6.25;;;;;;;30.76;44.26;99983.13;1792133;76;21274;-60
2021/07/20 09:45:21;;;;;;;14.07;6.30;;;;;;;30.76;44.26;99983.13;1787974;77;21363;-62
2021/07/20 09:48:52;;;;;;;11.08;6.10;;;;;;;30.79;43.85;99977.41;1787936;77;21247;-60
2021/07/20 09:52:29;;;;;;;12.55;5.97;;;;;;;30.78;43.33;99975.14;1758812;79;21410;-61
2021/07/20 09:56:21;;;;;;;14.70;6.15;;;;;;;30.80;43.80;99971.42;1739307;80;21282;-58
2021/07/20 09:59:58;;;;;;;12.70;6.42;;;;;;;30.89;43.64;99961.02;1752109;80;21418;-62
2021/07/20 10:03:45;;;;;;;14.83;6.97;;;;;;;30.98;43.46;99970.44;1745479;79;21346;-62
2021/07/20 10:06:58;;;;;;;11.15;6.33;;;;;;;31.10;43.17;99965.59;1746394;79;21188;-62
2021/07/20 10:10:14;;;;;;;10.55;5.50;;;;;;;31.23;43.16;99963.29;1744823;77;21574;-61
2021/07/20 10:13:39;;;;;;;10.72;5.95;;;;;;;31.30;42.86;99963.12;1750776;79;21733;-59
2021/07/20 10:17:31;;;;;;;11.33;5.95;;;;;;;31.39;42.73;99961.77;1755821;79;21397;-59
2021/07/20 10:20:42;;;;;;;11.63;5.37;;;;;;;31.49;42.45;99959.50;1762345;79;21914;-60
2021/07/20 10:24:14;;;;;;;9.65;6.20;;;;;;;31.60;41.55;99958.67;1762319;76;21724;-60
2021/07/20 10:27:33;;;;;;;13.93;6.45;;;;;;;31.64;41.32;99959.67;1770538;79;21237;-61
2021/07/20 10:30:38;;;;;;;11.50;6.25;;;;;;;31.71;40.61;99954.39;1775521;78;21377;-62
2021/07/20 10:33:54;;;;;;;11.38;6.25;;;;;;;31.72;40.36;99956.05;1773334;79;21410;-61
2021/07/20 10:37:12;;;;;;;12.95;6.65;;;;;;;31.76;40.69;99938.69;1777045;77;21977;-60
2021/07/20 10:40:25;;;;;;;17.23;6.58;;;;;;;31.88;40.88;99944.59;1794804;77;21383;-65
2021/07/20 10:43:42;;;;;;;13.78;6.30;;;;;;;31.97;40.33;99939.78;1770964;77;21359;-60
2021/07/20 10:46:50;;;;;;;12.58;6.55;;;;;;;31.98;40.29;99940.06;1759384;77;21247;-61
2021/07/20 10:50:07;;;;;;;16.57;6.72;;;;;;;32.03;40.46;99932.83;1756669;79;21215;-61
2021/07/20 10:53:25;;;;;;;14.07;6.53;;;;;;;32.13;40.73;99931.09;1764326;78;21503;-60
2021/07/20 10:56:42;;;;;;;14.10;6.10;;;;;;;32.29;40.60;99934.30;1766116;79;21967;-62
2021/07/20 11:00:19;;;;;;;10.75;5.75;;;;;;;32.42;40.21;99924.86;1780227;78;21401;-61
2021/07/20 11:03:44;;;;;;;12.03;6.15;;;;;;;32.51;39.92;99925.73;1735755;80;21242;-60
2021/07/20 11:06:50;;;;;;;11.08;6.08;;;;;;;32.58;39.23;99926.90;1771059;79;21244;-58
2021/07/20 11:09:56;;;;;;;12.60;5.72;;;;;;;32.59;38.88;99924.30;1788587;78;21235;-59
2021/07/20 11:13:05;;;;;;;12.80;6.28;;;;;;;32.61;38.65;99921.13;1780397;78;21239;-58
2021/07/20 11:16:12;;;;;;;13.50;5.83;;;;;;;32.66;38.32;99923.81;1758179;79;21433;-59
2021/07/20 11:19:18;;;;;;;10.00;5.50;;;;;;;32.79;38.23;99917.97;1762940;79;21218;-59
2021/07/20 11:22:23;;;;;;;10.60;5.60;;;;;;;32.89;37.43;99912.00;1777099;78;21219;-59
2021/07/20 11:25:29;;;;;;;11.53;5.62;;;;;;;33.02;37.73;99911.00;1791260;79;21463;-58
2021/07/20 11:28:35;;;;;;;12.37;6.62;;;;;;;33.18;38.42;99907.05;1791518;77;21430;-59
2021/07/20 11:31:53;;;;;;;12.95;6.20;;;;;;;33.33;38.86;99907.34;1771236;78;21232;-59
2021/07/20 11:35:03;;;;;;;9.53;5.83;;;;;;;33.43;37.72;99910.44;1785355;77;21363;-59
2021/07/20 11:38:21;;;;;;;9.88;5.40;;;;;;;33.45;37.56;99906.68;1726035;80;21247;-59
2021/07/20 11:41:47;;;;;;;13.48;5.92;;;;;;;33.53;37.35;99899.30;1702668;79;21239;-58
2021/07/20 11:45:13;;;;;;;11.40;5.28;;;;;;;33.63;37.58;99905.47;1780871;79;21351;-59
2021/07/20 11:48:20;;;;;;;10.48;5.85;;;;;;;33.71;37.43;99891.82;1760831;78;21232;-65
2021/07/20 11:51:47;;;;;;;9.98;5.58;;;;;;;33.72;36.76;99884.11;1761323;78;21378;-63
2021/07/20 11:55:18;;;;;;;10.75;5.60;;;;;;;33.76;37.49;99884.50;1781931;78;21255;-61
2021/07/20 11:59:05;;;;;;;10.08;5.17;;;;;;;33.82;37.34;99895.11;1716550;79;21729;-62
2021/07/20 12:02:31;;;;;;;11.05;5.90;;;;;;;33.87;37.19;99876.45;1687521;80;21196;-63
2021/07/20 12:06:06;;;;;;;8.83;5.37;;;;;;;34.00;37.27;99880.49;1739680;77;21253;-62
2021/07/20 12:09:22;;;;;;;8.93;5.80;;;;;;;34.02;36.99;99881.57;1755103;76;21279;-61
2021/07/20 12:12:32;;;;;;;12.33;5.80;;;;;;;33.95;37.21;99875.00;1763938;76;21230;-62
2021/07/20 12:15:40;;;;;;;13.90;6.95;;;;;;;33.93;37.52;99870.27;1770908;79;21671;-61
2021/07/20 12:19:02;;;;;;;9.50;5.62;;;;;;;33.88;36.99;99875.27;1740775;78;21392;-62
2021/07/20 12:22:15;;;;;;;9.55;5.40;;;;;;;33.82;36.75;99868.12;1796230;77;21864;-61
2021/07/20 12:25:21;;;;;;;10.98;5.70;;;;;;;33.76;36.52;99869.49;1792951;76;21319;-61
2021/07/20 12:28:28;;;;;;;18.37;6.05;;;;;;;33.72;36.24;99863.66;1762312;78;21181;-63
2021/07/20 12:31:38;;;;;;;14.03;5.65;;;;;;;33.70;36.59;99872.28;1734611;81;21271;-59
2021/07/20 12:34:51;;;;;;;9.53;5.10;;;;;;;33.66;36.74;99864.19;1751731;78;21221;-62
2021/07/20 12:38:17;;;;;;;11.10;5.85;;;;;;;33.71;36.95;99859.73;1769755;79;21751;-64
2021/07/20 12:41:22;;;;;;;11.83;5.50;;;;;;;33.74;36.49;99863.31;1780174;79;21879;-62
2021/07/20 12:44:31;;;;;;;8.90;5.53;;;;;;;33.68;37.12;99854.74;1772259;78;21208;-61
2021/07/20 12:47:38;;;;;;;9.63;5.70;;;;;;;33.68;37.01;99848.45;1765585;77;21201;-61
2021/07/20 12:50:46;;;;;;;15.32;6.00;;;;;;;33.72;36.91;99851.45;1759415;77;21205;-62
2021/07/20 12:53:53;;;;;;;12.07;5.87;;;;;;;33.71;36.66;99844.12;1791864;79;21374;-62
2021/07/20 12:57:01;;;;;;;10.75;5.45;;;;;;;33.74;36.92;99844.85;1773977;79;21222;-61
2021/07/20 13:00:08;;;;;;;9.13;5.83;;;;;;;33.84;37.18;99846.70;1773843;78;21198;-62
2021/07/20 13:03:15;;;;;;;10.93;5.53;;;;;;;33.91;36.41;99851.89;1785793;78;21344;-62
2021/07/20 13:06:27;;;;;;;10.35;5.03;;;;;;;33.85;36.77;99841.29;1725722;79;21552;-62
2021/07/20 13:09:33;;;;;;;13.22;5.85;;;;;;;33.89;37.28;99835.16;1726011;80;21316;-61
2021/07/20 13:12:41;;;;;;;10.90;5.60;;;;;;;33.92;36.98;99846.47;1694860;81;21244;-63
2021/07/20 13:15:58;;;;;;;9.15;5.47;;;;;;;33.94;36.93;99842.67;1760436;79;22948;-62
2021/07/20 13:19:04;;;;;;;7.87;5.33;;;;;;;33.89;35.74;99832.89;1709642;80;21257;-62
2021/07/20 13:22:10;;;;;;;8.48;5.70;;;;;;;33.76;36.09;99842.51;1754627;77;21235;-62
2021/07/20 13:25:17;;;;;;;10.82;5.90;;;;;;;33.64;36.69;99837.55;1760252;78;21612;-62
2021/07/20 13:28:23;;;;;;;9.70;5.65;;;;;;;33.53;36.45;99836.84;1749410;77;21235;-62
2021/07/20 13:31:40;;;;;;;9.55;5.42;;;;;;;33.47;36.38;99839.05;1726077;78;21346;-63
2021/07/20 13:34:58;;;;;;;9.58;5.45;;;;;;;33.46;37.23;99826.01;1736948;78;21226;-61
2021/07/20 13:38:04;;;;;;;9.55;5.90;;;;;;;33.50;37.43;99830.42;1767126;78;21326;-62
2021/07/20 13:41:11;;;;;;;10.53;5.85;;;;;;;33.56;36.61;99826.22;1728579;80;21421;-61
2021/07/20 13:44:19;;;;;;;10.05;5.10;;;;;;;33.53;36.56;99822.64;1772711;78;21224;-62
2021/07/20 13:47:25;;;;;;;9.75;5.08;;;;;;;33.54;36.51;99819.46;1741904;79;21874;-63
2021/07/20 13:50:36;;;;;;;10.90;5.60;;;;;;;33.57;36.78;99809.45;1768354;78;21765;-62
2021/07/20 13:53:44;;;;;;;15.03;7.78;;;;;;;33.62;36.63;99813.52;1751949;76;21239;-62
2021/07/20 13:56:55;;;;;;;12.25;7.55;;;;;;;33.66;36.67;99815.91;1770324;77;21227;-61
2021/07/20 14:00:03;;;;;;;12.45;8.28;;;;;;;33.63;36.29;99810.91;1714728;78;21297;-60
2021/07/20 14:03:10;;;;;;;9.10;5.42;;;;;;;33.64;36.21;99809.16;1768086;78;21202;-63
2021/07/20 14:06:18;;;;;;;9.65;5.70;;;;;;;33.61;35.75;99809.00;1766112;78;21729;-63
2021/07/20 14:09:25;;;;;;;11.80;5.80;;;;;;;33.53;36.57;99801.35;1764764;78;21196;-63
2021/07/20 14:12:30;;;;;;;9.28;5.28;;;;;;;33.39;36.95;99804.40;1758297;78;21749;-61
2021/07/20 14:15:36;;;;;;;9.15;4.72;;;;;;;33.30;37.05;99800.17;1737219;79;21164;-62
2021/07/20 14:18:42;;;;;;;9.70;4.78;;;;;;;33.21;36.90;99792.86;1754388;78;21737;-63
2021/07/20 14:21:52;;;;;;;8.75;5.45;;;;;;;33.15;37.43;99789.96;1754966;79;21239;-61
2021/07/20 14:25:01;;;;;;;10.43;5.22;;;;;;;33.16;37.58;99785.94;1779285;78;21232;-61
2021/07/20 14:28:10;;;;;;;9.53;5.28;;;;;;;33.20;38.15;99785.53;1729086;80;21235;-62
2021/07/20 14:31:17;;;;;;;8.43;5.22;;;;;;;33.23;38.14;99787.11;1705230;79;22350;-60
2021/07/20 14:34:22;;;;;;;10.98;4.75;;;;;;;33.25;37.79;99784.73;1710307;80;21353;-62
2021/07/20 14:37:55;;;;;;;10.65;5.00;;;;;;;33.27;38.11;99787.23;1712168;79;21288;-63
2021/07/20 14:41:00;;;;;;;6.67;4.93;;;;;;;33.28;37.62;99787.50;1711502;81;21283;-63
2021/07/20 14:44:09;;;;;;;9.10;5.10;;;;;;;33.19;37.25;99790.36;1713613;82;21836;-63
2021/07/20 14:47:15;;;;;;;11.90;5.53;;;;;;;33.09;37.75;99787.88;1708196;80;21283;-63
2021/07/20 14:50:41;;;;;;;9.70;5.87;;;;;;;33.03;37.68;99801.20;1761900;79;21362;-63
2021/07/20 14:54:00;;;;;;;9.70;5.20;;;;;;;32.95;38.29;99800.02;1772637;78;22326;-64